createdAt,value
2022-08-05T00:04:00.930Z,64.29
2022-08-05T00:08:57.935Z,64.34
2022-08-05T00:13:54.527Z,64.41
2022-08-05T00:18:51.498Z,63.76
2022-08-05T00:23:53.295Z,64.25
2022-08-05T00:29:01.720Z,63.45
2022-08-05T00:34:53.219Z,63.84
2022-08-05T00:39:15.618Z,63.06
2022-08-05T00:44:12.217Z,62.65
2022-08-05T00:49:08.875Z,62.76
2022-08-05T00:54:12.743Z,62.15
2022-08-05T00:59:09.415Z,62.42
2022-08-05T01:04:13.854Z,62.11
2022-08-05T01:09:11.319Z,61.27
2022-08-05T01:14:35.401Z,61.45
2022-08-05T01:20:01.568Z,61.23
2022-08-05T01:25:06.951Z,61.05
2022-08-05T01:30:04.818Z,61.02
2022-08-05T01:35:51.342Z,60.45
2022-08-05T01:40:35.028Z,60.12
2022-08-05T01:45:34.949Z,60.47
2022-08-05T01:50:40.591Z,60.03
2022-08-05T01:55:48.589Z,60.24
2022-08-05T02:00:49.737Z,60.04
2022-08-05T02:05:46.877Z,59.85
2022-08-05T02:10:49.501Z,59.67
2022-08-05T02:15:55.811Z,59.81
2022-08-05T02:20:59.756Z,60.09
2022-08-05T02:25:57.760Z,59.51
2022-08-05T02:30:59.435Z,59.72
2022-08-05T02:36:00.683Z,59.46
2022-08-05T02:40:58.652Z,60.36
2022-08-05T02:45:55.524Z,59.95
2022-08-05T02:51:06.274Z,60.82
2022-08-05T02:56:06.280Z,61.79
2022-08-05T03:01:03.679Z,62.47
2022-08-05T03:06:55.754Z,64.04
2022-08-05T03:11:57.042Z,66.52
2022-08-05T03:16:41.100Z,67.18
2022-08-05T03:21:41.662Z,67.60
2022-08-05T03:26:49.411Z,68.76
2022-08-05T03:31:56.509Z,69.20
2022-08-05T03:36:54.470Z,69.25
2022-08-05T03:41:52.662Z,69.88
2022-08-05T03:46:52.872Z,70.36
2022-08-05T03:52:38.456Z,70.83
2022-08-05T03:57:19.081Z,70.87
2022-08-05T04:02:38.934Z,71.18
2022-08-05T04:07:34.445Z,71.54
2022-08-05T04:12:51.781Z,72.24
2022-08-05T04:17:56.104Z,72.46
2022-08-05T04:22:54.245Z,72.34
2022-08-05T04:27:57.231Z,72.45
2022-08-05T04:32:56.896Z,73.21
2022-08-05T04:38:01.104Z,72.83
2022-08-05T04:43:02.344Z,73.05
2022-08-05T04:48:10.253Z,73.86
2022-08-05T04:53:17.135Z,73.41
2022-08-05T04:58:15.293Z,74.11
2022-08-05T05:03:18.809Z,73.88
2022-08-05T05:08:26.758Z,74.10
2022-08-05T05:13:32.376Z,74.15
2022-08-05T05:18:48.532Z,74.24
2022-08-05T05:24:02.767Z,73.62
2022-08-05T05:29:02.152Z,73.69
2022-08-05T05:34:02.047Z,73.00
2022-08-05T05:38:59.837Z,73.83
2022-08-05T05:44:00.234Z,73.40
2022-08-05T05:48:57.383Z,73.93
2022-08-05T05:53:59.755Z,73.34
2022-08-05T05:58:56.575Z,73.35
2022-08-05T06:04:01.880Z,73.11
2022-08-05T06:09:00.389Z,73.17
2022-08-05T06:13:57.402Z,73.40
2022-08-05T06:18:53.939Z,73.08
2022-08-05T06:23:50.528Z,72.90
2022-08-05T06:28:47.228Z,73.41
2022-08-05T06:34:07.970Z,72.97
2022-08-05T06:39:01.083Z,72.95
2022-08-05T06:44:00.624Z,72.80
2022-08-05T06:48:59.250Z,72.70
2022-08-05T06:53:58.190Z,72.74
2022-08-05T06:58:55.908Z,72.57
2022-08-05T07:03:52.624Z,71.86
2022-08-05T07:08:54.726Z,71.18
2022-08-05T07:14:20.276Z,70.68
2022-08-05T07:20:10.643Z,69.94
2022-08-05T07:24:43.919Z,70.53
2022-08-05T07:30:22.375Z,69.63
2022-08-05T07:36:04.263Z,68.76
2022-08-05T07:40:32.114Z,69.01
2022-08-05T07:45:56.444Z,68.97
2022-08-05T07:50:46.542Z,68.60
2022-08-05T07:56:05.616Z,67.93
2022-08-05T08:00:59.997Z,68.09
2022-08-05T08:05:57.028Z,68.52
2022-08-05T08:10:56.784Z,68.61
2022-08-05T08:16:34.856Z,68.74
2022-08-05T08:21:17.761Z,68.43
2022-08-05T08:26:14.593Z,68.66
2022-08-05T08:31:17.363Z,68.70
2022-08-05T08:36:46.340Z,68.55
2022-08-05T08:41:51.360Z,68.70
2022-08-05T08:46:51.958Z,67.77
2022-08-05T08:52:03.525Z,67.77
2022-08-05T08:57:03.463Z,67.75
2022-08-05T09:02:02.183Z,68.04
2022-08-05T09:06:58.937Z,67.81
2022-08-05T09:11:57.782Z,68.16
2022-08-05T09:17:40.486Z,68.10
2022-08-05T09:23:07.787Z,67.83
2022-08-05T09:28:21.142Z,67.28
2022-08-05T09:33:18.082Z,68.25
2022-08-05T09:38:27.447Z,67.91
2022-08-05T09:43:41.619Z,67.68
2022-08-05T09:48:38.586Z,67.41
2022-08-05T09:53:59.107Z,67.18
2022-08-05T09:59:04.081Z,66.72
2022-08-05T10:04:11.036Z,66.91
2022-08-05T10:09:27.852Z,66.79
2022-08-05T10:14:30.264Z,66.39
2022-08-05T10:20:04.058Z,66.45
2022-08-05T10:24:46.786Z,66.61
2022-08-05T10:30:06.854Z,66.28
2022-08-05T10:35:04.547Z,65.97
2022-08-05T10:40:17.598Z,66.82
2022-08-05T10:45:23.375Z,66.74
2022-08-05T10:50:36.195Z,66.91
2022-08-05T10:56:03.661Z,66.54
2022-08-05T11:00:55.190Z,67.29
2022-08-05T11:06:06.402Z,66.95
2022-08-05T11:11:44.676Z,67.07
2022-08-05T11:17:59.485Z,67.99
2022-08-05T11:22:49.685Z,68.22
2022-08-05T11:27:51.790Z,66.71
2022-08-05T11:33:43.875Z,67.16
2022-08-05T11:38:45.908Z,66.75
2022-08-05T11:44:06.730Z,66.28
2022-08-05T11:49:12.317Z,66.47
2022-08-05T11:54:11.749Z,66.58
2022-08-05T11:59:16.835Z,66.04
2022-08-05T12:04:18.047Z,66.13
2022-08-05T12:09:20.728Z,65.42
2022-08-05T12:14:39.198Z,66.12
2022-08-05T12:20:16.861Z,66.69
2022-08-05T12:25:14.224Z,66.89
2022-08-05T12:30:15.514Z,67.20
2022-08-05T12:35:16.827Z,67.33
2022-08-05T12:40:26.387Z,67.87
2022-08-05T12:45:23.370Z,67.61
2022-08-05T12:50:39.459Z,67.46
2022-08-05T12:55:37.164Z,67.61
2022-08-05T13:02:03.363Z,67.87
2022-08-05T13:05:53.600Z,67.24
2022-08-05T13:10:50.828Z,67.24
2022-08-05T13:15:51.229Z,66.71
2022-08-05T13:20:49.896Z,66.65
2022-08-05T13:25:52.543Z,66.44
2022-08-05T13:30:57.251Z,66.04
2022-08-05T13:35:55.167Z,66.42
2022-08-05T13:41:00.205Z,65.66
2022-08-05T13:45:57.200Z,65.38
2022-08-05T13:50:57.113Z,64.34
2022-08-05T13:55:57.656Z,63.93
2022-08-05T14:00:58.762Z,63.09
2022-08-05T14:06:24.891Z,63.40
2022-08-05T14:11:20.529Z,63.34
2022-08-05T14:16:19.264Z,62.83
2022-08-05T14:22:09.278Z,62.50
2022-08-05T14:26:35.777Z,62.30
2022-08-05T14:32:02.436Z,62.95
2022-08-05T14:36:55.830Z,62.45
2022-08-05T14:42:15.947Z,62.11
2022-08-05T14:47:09.165Z,62.38
2022-08-05T14:52:05.969Z,62.68
2022-08-05T14:57:09.802Z,62.23
2022-08-05T15:02:15.920Z,61.86
2022-08-05T15:08:11.379Z,61.52
2022-08-05T15:12:59.744Z,61.89
2022-08-05T15:17:55.081Z,61.76
2022-08-05T15:22:55.133Z,61.61
2022-08-05T15:27:54.800Z,61.45
2022-08-05T15:32:51.586Z,61.95
2022-08-05T15:38:32.353Z,61.50
2022-08-05T15:43:09.337Z,61.49
2022-08-05T15:48:09.916Z,62.62
2022-08-05T15:53:12.710Z,63.47
2022-08-05T15:58:16.432Z,63.52
2022-08-05T16:03:13.700Z,63.43
2022-08-05T16:08:11.452Z,63.32
2022-08-05T16:13:12.696Z,63.16
2022-08-05T16:18:20.081Z,62.95
2022-08-05T16:23:24.710Z,63.18
2022-08-05T16:28:21.247Z,62.61
2022-08-05T16:33:20.932Z,62.31
2022-08-05T16:38:25.709Z,61.93
2022-08-05T16:43:26.474Z,61.62
2022-08-05T16:48:25.438Z,61.21
2022-08-05T16:53:32.061Z,61.21
2022-08-05T16:58:29.518Z,60.11
2022-08-05T17:03:26.503Z,60.54
2022-08-05T17:08:35.903Z,60.37
2022-08-05T17:13:37.530Z,60.15
2022-08-05T17:18:37.996Z,60.62
2022-08-05T17:24:04.710Z,60.86
2022-08-05T17:28:52.317Z,60.65
2022-08-05T17:33:50.826Z,60.78
2022-08-05T17:38:48.056Z,60.12
2022-08-05T17:43:50.596Z,60.11
2022-08-05T17:48:50.086Z,59.71
2022-08-05T17:53:54.470Z,59.54
2022-08-05T17:58:51.515Z,59.03
2022-08-05T18:04:03.816Z,58.78
2022-08-05T18:09:03.800Z,58.15
2022-08-05T18:14:13.597Z,58.22
2022-08-05T18:19:16.958Z,58.33
2022-08-05T18:24:14.463Z,57.52
2022-08-05T18:29:11.153Z,57.98
2022-08-05T18:34:12.202Z,57.23
2022-08-05T18:39:22.357Z,56.84
2022-08-05T18:44:34.978Z,56.65
2022-08-05T18:50:02.800Z,56.91
2022-08-05T18:54:59.848Z,56.42
2022-08-05T19:00:02.194Z,56.68
2022-08-05T19:06:05.722Z,56.47
2022-08-05T19:10:28.162Z,56.20
2022-08-05T19:15:58.928Z,57.30
2022-08-05T19:20:46.958Z,56.57
2022-08-05T19:25:43.794Z,57.35
2022-08-05T19:30:44.718Z,57.08
2022-08-05T19:35:56.540Z,57.41
2022-08-05T19:40:54.302Z,57.30
2022-08-05T19:45:54.554Z,57.27
2022-08-05T19:50:52.757Z,57.58
2022-08-05T19:56:15.292Z,57.36
2022-08-05T20:01:06.764Z,57.37
2022-08-05T20:06:15.610Z,57.28
2022-08-05T20:11:21.772Z,57.14
2022-08-05T20:16:19.541Z,57.80
2022-08-05T20:21:22.951Z,58.08
2022-08-05T20:26:21.110Z,58.21
2022-08-05T20:31:21.791Z,58.13
2022-08-05T20:36:20.765Z,58.92
2022-08-05T20:41:23.935Z,58.98
2022-08-05T20:46:24.922Z,59.08
2022-08-05T20:51:22.166Z,59.50
2022-08-05T20:56:18.730Z,59.57
2022-08-05T21:01:26.203Z,59.45
2022-08-05T21:06:35.464Z,59.51
2022-08-05T21:12:09.533Z,60.05
2022-08-05T21:16:48.931Z,60.12
2022-08-05T21:21:50.963Z,60.60
2022-08-05T21:26:58.393Z,60.48
2022-08-05T21:31:55.681Z,60.70
2022-08-05T21:36:52.815Z,61.07
2022-08-05T21:41:52.765Z,61.00
2022-08-05T21:46:58.259Z,61.16
2022-08-05T21:52:15.821Z,61.45
2022-08-05T22:02:28.490Z,61.08
2022-08-05T22:07:39.741Z,61.25
2022-08-05T22:12:45.033Z,61.12
2022-08-05T22:17:56.376Z,61.09
2022-08-05T22:23:17.135Z,61.11
2022-08-05T22:28:18.327Z,61.18
2022-08-05T22:33:15.778Z,61.05
2022-08-05T22:38:12.707Z,60.74
2022-08-05T22:43:09.314Z,61.30
2022-08-05T22:48:09.814Z,61.48
2022-08-05T22:53:09.767Z,61.17
2022-08-05T22:58:06.568Z,61.33
2022-08-05T23:03:08.284Z,61.19
2022-08-05T23:08:10.461Z,61.10
2022-08-05T23:13:08.053Z,61.00
2022-08-05T23:18:05.905Z,61.06
2022-08-05T23:23:09.026Z,61.21
2022-08-05T23:28:07.007Z,60.85
2022-08-05T23:33:04.230Z,61.29
2022-08-05T23:38:00.961Z,61.08
2022-08-05T23:42:57.532Z,61.13
2022-08-05T23:47:59.339Z,61.00
2022-08-05T23:52:56.237Z,61.27
2022-08-05T23:57:55.211Z,61.78
